Time;durP1;ratioP1;P1;durP2;ratioP2;P2;SDS_P1;SDS_P2;PMS_P1;PMS_P2;Temp;Humidity;BMP_temperature;BMP_pressure;BME280_temperature;BME280_humidity;BME280_pressure;Samples;Min_cycle;Max_cycle;Signal;HPM_P1;HPM_P2
2022/04/08 00:02:04;;;;;;;10.02;2.90;;;;;;;6.04;100.00;99937.06;5275697;28;20023;-73
2022/04/08 00:04:35;;;;;;;13.63;3.00;;;;;;;6.02;100.00;99939.03;5281703;28;20068;-74
2022/04/08 00:07:05;;;;;;;11.00;2.47;;;;;;;6.00;100.00;99941.03;5272977;28;20122;-74
2022/04/08 00:09:36;;;;;;;10.40;3.15;;;;;;;5.95;100.00;99944.16;5277651;28;20042;-73
2022/04/08 00:12:07;;;;;;;10.80;2.83;;;;;;;5.89;100.00;99950.09;5272351;28;20500;-73
2022/04/08 00:14:37;;;;;;;16.17;3.00;;;;;;;5.89;100.00;99950.91;5278356;28;20108;-73
2022/04/08 00:17:08;;;;;;;6.55;2.50;;;;;;;5.85;100.00;99952.22;5275436;28;20031;-74
2022/04/08 00:19:38;;;;;;;9.68;2.72;;;;;;;5.76;100.00;99947.84;5276858;28;20028;-73
2022/04/08 00:22:09;;;;;;;14.07;2.78;;;;;;;5.75;100.00;99948.84;5281346;28;20388;-73
2022/04/08 00:24:39;;;;;;;12.88;2.92;;;;;;;5.78;100.00;99951.19;5281014;28;20085;-74
2022/04/08 00:27:10;;;;;;;11.00;3.15;;;;;;;5.77;100.00;99949.50;5268284;28;20031;-74
2022/04/08 00:29:41;;;;;;;6.63;2.55;;;;;;;5.70;100.00;99945.81;5267463;28;20024;-74
2022/04/08 00:32:11;;;;;;;7.40;2.20;;;;;;;5.63;100.00;99947.44;5267479;28;20039;-74
2022/04/08 00:34:42;;;;;;;15.52;2.58;;;;;;;5.57;100.00;99956.00;5263900;28;20111;-74
2022/04/08 00:37:13;;;;;;;13.05;2.78;;;;;;;5.59;100.00;99951.41;5276670;28;20024;-74
2022/04/08 00:39:43;;;;;;;9.77;2.60;;;;;;;5.52;100.00;99955.66;5287375;28;20031;-74
2022/04/08 00:42:14;;;;;;;12.43;2.30;;;;;;;5.50;100.00;99947.00;5277423;28;20081;-74
2022/04/08 00:44:45;;;;;;;9.65;2.53;;;;;;;5.45;100.00;99958.94;5288039;28;20034;-73
2022/04/08 00:47:15;;;;;;;9.52;2.20;;;;;;;5.40;100.00;99963.06;5282443;28;20074;-73
2022/04/08 00:49:46;;;;;;;6.05;2.03;;;;;;;5.39;100.00;99967.53;5265993;28;20039;-74
2022/04/08 00:52:17;;;;;;;7.22;2.15;;;;;;;5.36;100.00;99970.50;5278458;28;20033;-73
2022/04/08 00:54:49;;;;;;;11.75;2.40;;;;;;;5.29;100.00;99969.47;5274064;28;20028;-73
2022/04/08 00:57:19;;;;;;;17.10;4.97;;;;;;;5.24;100.00;99982.38;5288424;28;20034;-74
2022/04/08 00:59:51;;;;;;;12.57;2.28;;;;;;;5.26;100.00;99988.38;5261465;28;20039;-74
2022/04/08 01:02:21;;;;;;;15.40;2.80;;;;;;;5.20;100.00;99981.84;5273165;28;20019;-74
2022/04/08 01:04:52;;;;;;;8.02;2.05;;;;;;;5.14;100.00;99979.78;5276132;28;20034;-74
2022/04/08 01:07:22;;;;;;;11.27;2.10;;;;;;;5.14;100.00;99992.25;5287961;28;20054;-73
2022/04/08 01:09:54;;;;;;;10.35;2.83;;;;;;;5.08;100.00;99984.91;5288315;28;20077;-74
2022/04/08 01:12:25;;;;;;;11.80;2.60;;;;;;;5.04;100.00;99991.50;5283788;28;20020;-74
2022/04/08 01:14:57;;;;;;;11.65;2.75;;;;;;;5.02;100.00;99996.97;5278845;28;20027;-74
2022/04/08 01:17:28;;;;;;;5.45;2.35;;;;;;;5.03;100.00;99997.81;5288023;28;20551;-73
2022/04/08 01:19:59;;;;;;;14.75;2.65;;;;;;;5.02;100.00;100006.75;5287556;28;20410;-73
2022/04/08 01:22:30;;;;;;;11.00;2.40;;;;;;;5.06;100.00;99994.81;5265846;28;20020;-73
2022/04/08 01:25:03;;;;;;;7.82;2.28;;;;;;;5.05;100.00;100001.97;5280328;28;20024;-75
2022/04/08 01:27:35;;;;;;;7.53;2.30;;;;;;;5.01;100.00;100000.59;5267137;28;20024;-74
2022/04/08 01:30:08;;;;;;;6.93;2.33;;;;;;;4.99;100.00;100001.75;5280457;28;20380;-74
2022/04/08 01:32:39;;;;;;;10.73;2.50;;;;;;;4.92;100.00;99999.69;5267024;28;20039;-73
2022/04/08 01:35:09;;;;;;;9.18;2.03;;;;;;;4.92;100.00;100006.84;5266527;28;20020;-73
2022/04/08 01:37:40;;;;;;;9.98;2.33;;;;;;;4.86;100.00;100005.59;5279697;28;20028;-73
2022/04/08 01:40:12;;;;;;;11.25;2.55;;;;;;;4.84;100.00;100006.75;5269024;28;20035;-73
2022/04/08 01:42:42;;;;;;;10.75;2.65;;;;;;;4.81;100.00;100015.00;5279937;28;20023;-74
2022/04/08 01:45:13;;;;;;;12.48;2.50;;;;;;;4.78;100.00;100018.81;5274558;28;20616;-73
2022/04/08 01:47:46;;;;;;;10.50;3.40;;;;;;;4.71;100.00;100007.09;5277882;28;20098;-73
2022/04/08 01:50:22;;;;;;;11.02;1.98;;;;;;;4.68;100.00;100015.38;5266477;28;20142;-73
2022/04/08 01:52:52;;;;;;;12.93;2.15;;;;;;;4.65;100.00;100013.84;5284067;28;20110;-72
2022/04/08 01:55:27;;;;;;;19.80;3.50;;;;;;;4.70;100.00;100018.72;5287035;28;20401;-73
2022/04/08 01:57:57;;;;;;;31.95;3.58;;;;;;;4.78;100.00;100024.13;5281595;28;20020;-73
2022/04/08 02:00:34;;;;;;;7.57;2.03;;;;;;;4.89;100.00;100023.91;5266179;28;20023;-73
2022/04/08 02:03:07;;;;;;;7.50;2.30;;;;;;;5.01;100.00;100019.19;5274818;28;20153;-73
2022/04/08 02:05:52;;;;;;;7.40;2.40;;;;;;;5.01;100.00;100018.38;5281443;28;20038;-73
2022/04/08 02:08:23;;;;;;;11.02;2.03;;;;;;;4.98;100.00;100016.03;5266348;28;20016;-73
2022/04/08 02:10:54;;;;;;;14.32;2.80;;;;;;;4.94;100.00;100021.63;5284824;28;20019;-73
2022/04/08 02:13:25;;;;;;;7.07;2.08;;;;;;;4.88;100.00;100014.25;5287372;28;20426;-73
2022/04/08 02:15:56;;;;;;;6.47;2.20;;;;;;;4.86;100.00;100015.38;5286693;28;20024;-73
2022/04/08 02:18:27;;;;;;;12.95;2.55;;;;;;;4.89;100.00;100023.06;5286560;28;20020;-73
2022/04/08 02:20:57;;;;;;;6.13;2.40;;;;;;;4.82;100.00;100025.50;5266137;28;20012;-74
2022/04/08 02:23:28;;;;;;;6.15;1.92;;;;;;;4.77;100.00;100025.13;5280701;28;20020;-74
2022/04/08 02:25:58;;;;;;;9.55;2.50;;;;;;;4.73;100.00;100026.38;5287002;28;20472;-73
2022/04/08 02:28:29;;;;;;;10.82;3.13;;;;;;;4.77;100.00;100019.81;5273206;28;20032;-73
2022/04/08 02:31:00;;;;;;;7.22;3.15;;;;;;;4.80;100.00;100029.28;5278532;28;20020;-73
2022/04/08 02:33:31;;;;;;;7.32;2.40;;;;;;;4.71;100.00;100028.34;5277454;28;20052;-72
2022/04/08 02:36:02;;;;;;;7.13;2.65;;;;;;;4.67;100.00;100025.16;5265813;28;20073;-73
2022/04/08 02:38:33;;;;;;;9.43;2.75;;;;;;;4.63;100.00;100031.75;5265838;28;20096;-73
2022/04/08 02:41:03;;;;;;;7.07;2.20;;;;;;;4.53;100.00;100023.00;5267435;28;20111;-73
2022/04/08 02:43:34;;;;;;;7.43;2.33;;;;;;;4.50;100.00;100017.13;5266249;28;20028;-73
2022/04/08 02:46:04;;;;;;;4.15;2.20;;;;;;;4.46;100.00;100021.91;5265670;28;20276;-73
2022/04/08 02:48:35;;;;;;;10.23;3.03;;;;;;;4.40;100.00;100018.00;5265889;28;20020;-73
2022/04/08 02:51:05;;;;;;;5.38;2.45;;;;;;;4.34;100.00;100015.13;5282659;28;20058;-73
2022/04/08 02:53:36;;;;;;;8.50;3.50;;;;;;;4.34;100.00;100013.28;5275051;28;20496;-73
2022/04/08 02:56:06;;;;;;;6.57;2.47;;;;;;;4.29;100.00;100015.56;5265516;28;20032;-73
2022/04/08 02:58:37;;;;;;;7.40;3.63;;;;;;;4.31;100.00;100007.44;5277073;28;20023;-73
2022/04/08 03:01:07;;;;;;;12.70;2.75;;;;;;;4.29;100.00;100014.72;5286519;28;20015;-73
2022/04/08 03:03:38;;;;;;;6.00;2.92;;;;;;;4.25;100.00;100026.59;5274352;28;20043;-73
2022/04/08 03:06:08;;;;;;;13.05;3.55;;;;;;;4.19;100.00;100030.69;5277800;28;20031;-73
2022/04/08 03:08:39;;;;;;;6.15;2.65;;;;;;;4.14;100.00;100035.59;5265767;28;20031;-73
2022/04/08 03:11:09;;;;;;;13.48;3.30;;;;;;;4.09;100.00;100036.03;5286587;28;20028;-73
2022/04/08 03:13:40;;;;;;;7.00;3.28;;;;;;;4.08;100.00;100036.19;5288689;28;20062;-73
2022/04/08 03:16:10;;;;;;;11.07;3.33;;;;;;;4.05;100.00;100044.41;5269718;28;20054;-73
2022/04/08 03:18:41;;;;;;;7.47;2.90;;;;;;;4.09;100.00;100049.28;5282869;28;20131;-73
2022/04/08 03:21:11;;;;;;;10.90;2.88;;;;;;;4.09;100.00;100051.13;5280068;28;20026;-72
2022/04/08 03:23:43;;;;;;;7.85;3.10;;;;;;;4.05;100.00;100058.53;5272571;28;20081;-72
2022/04/08 03:26:14;;;;;;;11.23;3.42;;;;;;;4.01;100.00;100054.47;5269109;28;20012;-73
2022/04/08 03:28:45;;;;;;;8.05;2.95;;;;;;;3.97;100.00;100052.28;5274853;28;20396;-74
2022/04/08 03:31:16;;;;;;;15.32;3.38;;;;;;;3.94;100.00;100056.03;5289805;28;20043;-73
2022/04/08 03:33:46;;;;;;;9.23;3.28;;;;;;;3.93;100.00;100056.19;5269867;28;20020;-73
2022/04/08 03:36:16;;;;;;;6.85;3.80;;;;;;;3.96;100.00;100062.03;5268692;28;20372;-73
2022/04/08 03:38:47;;;;;;;7.40;2.88;;;;;;;3.95;100.00;100063.00;5277882;28;20440;-73
2022/04/08 03:41:17;;;;;;;9.02;3.63;;;;;;;3.94;100.00;100063.16;5274323;28;20436;-73
2022/04/08 03:43:48;;;;;;;7.18;3.35;;;;;;;3.96;100.00;100071.81;5268674;28;20517;-74
2022/04/08 03:46:18;;;;;;;10.43;4.00;;;;;;;3.90;100.00;100078.53;5268490;28;20480;-73
2022/04/08 03:48:49;;;;;;;8.60;3.90;;;;;;;3.90;100.00;100071.41;5279626;28;20220;-73
2022/04/08 03:51:19;;;;;;;9.85;3.38;;;;;;;3.88;100.00;100076.03;5285040;28;20523;-73
2022/04/08 03:53:50;;;;;;;15.65;5.47;;;;;;;3.87;100.00;100069.03;5268714;28;20122;-73
2022/04/08 03:56:20;;;;;;;9.50;3.70;;;;;;;3.86;100.00;100064.69;5274450;28;20030;-74
2022/04/08 03:58:51;;;;;;;12.93;4.50;;;;;;;3.87;100.00;100063.75;5289992;28;20027;-73
2022/04/08 04:01:21;;;;;;;11.27;4.75;;;;;;;3.87;100.00;100062.91;5289638;28;20058;-73
2022/04/08 04:03:52;;;;;;;12.10;4.15;;;;;;;3.84;100.00;100058.72;5274500;28;20024;-73
2022/04/08 04:06:22;;;;;;;12.43;4.57;;;;;;;3.83;100.00;100051.72;5268421;28;20028;-73
2022/04/08 04:08:53;;;;;;;11.30;3.67;;;;;;;3.81;100.00;100044.88;5281711;28;20039;-73
2022/04/08 04:11:23;;;;;;;12.38;4.03;;;;;;;3.72;100.00;100043.94;5268622;28;20107;-73
2022/04/08 04:13:53;;;;;;;10.85;4.68;;;;;;;3.67;100.00;100034.72;5272489;28;20032;-73
2022/04/08 04:16:24;;;;;;;15.13;4.60;;;;;;;3.58;100.00;100031.09;5277785;28;20066;-73
2022/04/08 04:18:55;;;;;;;9.23;4.40;;;;;;;3.52;100.00;100031.69;5281772;28;20024;-72
2022/04/08 04:21:25;;;;;;;14.35;4.38;;;;;;;3.45;100.00;100022.59;5281095;28;20144;-72
2022/04/08 04:23:56;;;;;;;15.20;4.60;;;;;;;3.41;100.00;100026.50;5268927;28;20028;-72
2022/04/08 04:26:26;;;;;;;11.63;4.50;;;;;;;3.36;100.00;100026.91;5282046;28;20020;-72
2022/04/08 04:28:57;;;;;;;13.23;4.35;;;;;;;3.31;100.00;100016.75;5281345;28;20501;-72
2022/04/08 04:31:27;;;;;;;8.48;4.60;;;;;;;3.27;100.00;100023.31;5283207;28;20024;-72
2022/04/08 04:33:58;;;;;;;18.15;5.50;;;;;;;3.22;100.00;100025.53;5274229;28;20038;-72
2022/04/08 04:36:28;;;;;;;12.50;4.65;;;;;;;3.18;100.00;100024.13;5270629;28;20080;-72
2022/04/08 04:38:59;;;;;;;11.25;4.55;;;;;;;3.16;100.00;100041.13;5277240;28;20034;-73
2022/04/08 04:41:29;;;;;;;13.07;5.35;;;;;;;3.14;100.00;100032.50;5276010;28;20070;-73
2022/04/08 04:44:00;;;;;;;17.48;5.35;;;;;;;3.15;100.00;100027.06;5289048;28;20073;-72
2022/04/08 04:46:30;;;;;;;13.77;4.95;;;;;;;3.18;100.00;100037.38;5269488;28;20052;-72
2022/04/08 04:49:01;;;;;;;13.48;5.43;;;;;;;3.19;100.00;100040.88;5267315;28;20572;-73
2022/04/08 04:51:32;;;;;;;11.05;5.00;;;;;;;3.16;100.00;100031.38;5281245;28;20067;-73
2022/04/08 04:54:03;;;;;;;13.80;5.40;;;;;;;3.14;100.00;100033.34;5267747;28;20051;-72
2022/04/08 04:56:33;;;;;;;20.00;5.63;;;;;;;3.10;100.00;100037.22;5288137;28;20135;-73
2022/04/08 04:59:04;;;;;;;13.40;6.88;;;;;;;3.12;100.00;100030.00;5274667;28;20042;-72
2022/04/08 05:01:34;;;;;;;20.27;6.13;;;;;;;3.15;100.00;100027.06;5280067;28;20478;-72
2022/04/08 05:04:05;;;;;;;16.90;5.60;;;;;;;3.16;100.00;100036.66;5269782;28;20050;-73
2022/04/08 05:06:35;;;;;;;13.88;6.43;;;;;;;3.16;100.00;100039.31;5288266;28;20497;-73
2022/04/08 05:09:06;;;;;;;13.98;6.38;;;;;;;3.19;100.00;100036.41;5274308;28;20106;-73
2022/04/08 05:11:36;;;;;;;14.20;5.50;;;;;;;3.21;100.00;100023.84;5288264;28;20020;-72
2022/04/08 05:14:07;;;;;;;16.73;5.57;;;;;;;3.23;100.00;100021.91;5274357;28;20031;-72
2022/04/08 05:16:37;;;;;;;16.25;5.47;;;;;;;3.25;100.00;100019.94;5288283;28;20118;-72
2022/04/08 05:19:08;;;;;;;15.63;5.20;;;;;;;3.27;100.00;100023.31;5274291;28;20024;-72
2022/04/08 05:21:38;;;;;;;26.17;11.55;;;;;;;3.31;100.00;100023.84;5274220;28;20069;-73
2022/04/08 05:24:09;;;;;;;23.42;5.70;;;;;;;3.37;100.00;100015.34;5280158;28;20419;-71
2022/04/08 05:26:39;;;;;;;18.70;6.70;;;;;;;3.43;100.00;100016.59;5261849;28;20485;-71
2022/04/08 05:29:10;;;;;;;12.18;5.20;;;;;;;3.48;100.00;100020.50;5259325;28;20039;-71
2022/04/08 05:31:40;;;;;;;19.33;10.73;;;;;;;3.53;100.00;100020.09;5268310;28;20088;-71
2022/04/08 05:34:11;;;;;;;18.92;6.80;;;;;;;3.57;100.00;100017.00;5270582;28;20135;-72
2022/04/08 05:36:41;;;;;;;16.45;8.93;;;;;;;3.67;100.00;100017.00;5264908;28;20503;-71
2022/04/08 05:39:12;;;;;;;21.48;6.80;;;;;;;3.72;100.00;100013.91;5265364;28;20350;-71
2022/04/08 05:41:42;;;;;;;11.63;5.15;;;;;;;3.74;100.00;100009.28;5275217;28;20080;-72
2022/04/08 05:44:12;;;;;;;14.07;5.57;;;;;;;3.81;100.00;100010.38;5272982;28;20016;-71
2022/04/08 05:46:44;;;;;;;54.40;24.58;;;;;;;3.86;100.00;100006.31;5275827;28;20062;-72
2022/04/08 05:49:14;;;;;;;13.85;5.57;;;;;;;3.90;100.00;100006.88;5264417;28;20069;-71
2022/04/08 05:51:47;;;;;;;11.10;5.20;;;;;;;3.94;100.00;100002.13;5264920;28;20028;-72
2022/04/08 05:54:17;;;;;;;21.02;8.32;;;;;;;4.05;100.00;99997.47;5264674;28;20024;-71
2022/04/08 05:56:48;;;;;;;17.90;5.15;;;;;;;4.13;100.00;99996.75;5264528;28;20469;-71
2022/04/08 05:59:18;;;;;;;11.75;4.60;;;;;;;4.17;100.00;100003.47;5281604;28;20027;-72
2022/04/08 06:01:49;;;;;;;12.07;4.63;;;;;;;4.20;100.00;100002.31;5274754;28;20066;-72
2022/04/08 06:04:20;;;;;;;9.93;3.88;;;;;;;4.24;100.00;100001.88;5281281;28;20026;-71
2022/04/08 06:06:51;;;;;;;13.10;4.10;;;;;;;4.34;100.00;100001.84;5273712;28;20469;-71
2022/04/08 06:09:21;;;;;;;12.18;4.43;;;;;;;4.43;100.00;100008.94;5277975;28;20065;-71
2022/04/08 06:11:52;;;;;;;35.30;16.95;;;;;;;4.58;100.00;100009.28;5264584;28;20020;-71
2022/04/08 06:14:22;;;;;;;17.67;6.35;;;;;;;4.71;100.00;100004.44;5285464;28;20058;-72
2022/04/08 06:16:53;;;;;;;17.30;7.20;;;;;;;4.80;100.00;100008.84;5284121;28;20024;-72
2022/04/08 06:19:24;;;;;;;14.13;5.53;;;;;;;4.94;100.00;99996.88;5264523;28;20098;-72
2022/04/08 06:21:54;;;;;;;19.80;4.68;;;;;;;4.94;100.00;99984.41;5280194;28;20571;-72
2022/04/08 06:24:25;;;;;;;10.48;3.95;;;;;;;4.96;100.00;99994.91;5275206;28;20557;-72
2022/04/08 06:26:55;;;;;;;22.83;6.65;;;;;;;5.00;100.00;99996.28;5278043;28;20031;-72
2022/04/08 06:29:26;;;;;;;8.18;3.35;;;;;;;4.99;100.00;99988.47;5275567;28;20020;-72
2022/04/08 06:31:56;;;;;;;10.90;3.72;;;;;;;5.01;100.00;99984.66;5266600;28;20449;-72
2022/04/08 06:34:27;;;;;;;14.20;6.13;;;;;;;5.04;100.00;99992.31;5259607;28;20542;-72
2022/04/08 06:36:57;;;;;;;12.40;4.10;;;;;;;5.03;100.00;99977.38;5270995;28;20519;-72
2022/04/08 06:39:28;;;;;;;9.15;3.67;;;;;;;4.99;100.00;99976.00;5270748;28;20032;-72
2022/04/08 06:41:58;;;;;;;9.95;3.88;;;;;;;5.01;100.00;99986.47;5276310;28;20147;-72
2022/04/08 06:44:28;;;;;;;13.25;4.38;;;;;;;4.99;100.00;99983.97;5283301;28;20059;-72
2022/04/08 06:46:59;;;;;;;16.98;4.40;;;;;;;5.07;100.00;99983.19;5264786;28;20024;-72
2022/04/08 06:49:29;;;;;;;10.60;3.83;;;;;;;5.06;100.00;99977.03;5281852;28;20024;-72
2022/04/08 06:52:01;;;;;;;13.82;4.15;;;;;;;5.11;100.00;99989.88;5268409;28;20022;-71
2022/04/08 06:54:32;;;;;;;15.52;4.40;;;;;;;5.13;100.00;99985.28;5281597;28;20024;-72
2022/04/08 06:57:02;;;;;;;12.18;3.65;;;;;;;5.13;100.00;99983.44;5268493;28;20031;-72
2022/04/08 06:59:33;;;;;;;6.80;3.60;;;;;;;5.15;100.00;99981.47;5267527;28;20023;-72
2022/04/08 07:02:04;;;;;;;15.15;3.60;;;;;;;5.22;100.00;99980.84;5267864;28;20016;-72
2022/04/08 07:04:36;;;;;;;12.90;4.10;;;;;;;5.28;100.00;99982.91;5267626;28;20031;-72
2022/04/08 07:07:06;;;;;;;11.48;3.90;;;;;;;5.29;100.00;99982.75;5269192;28;20028;-72
2022/04/08 07:09:37;;;;;;;13.95;3.50;;;;;;;5.35;100.00;99984.78;5289370;28;20019;-72
2022/04/08 07:12:07;;;;;;;12.27;3.88;;;;;;;5.34;100.00;99985.78;5275009;28;20508;-72
2022/04/08 07:14:38;;;;;;;24.85;7.50;;;;;;;5.35;100.00;99982.13;5288598;28;20023;-72
2022/04/08 07:17:08;;;;;;;11.90;3.58;;;;;;;5.46;100.00;99986.38;5275128;28;20039;-72
2022/04/08 07:19:39;;;;;;;10.88;3.78;;;;;;;5.53;100.00;99986.59;5278138;28;20024;-72
2022/04/08 07:22:09;;;;;;;12.73;3.90;;;;;;;5.56;100.00;99989.78;5267281;28;20081;-72
2022/04/08 07:24:40;;;;;;;10.20;3.75;;;;;;;5.64;100.00;99978.38;5279553;28;20024;-72
2022/04/08 07:27:11;;;;;;;12.38;3.70;;;;;;;5.61;100.00;99971.50;5288432;28;20466;-72
2022/04/08 07:29:41;;;;;;;8.05;3.65;;;;;;;5.66;100.00;99971.06;5288236;28;20061;-72
2022/04/08 07:32:12;;;;;;;9.85;4.05;;;;;;;5.72;100.00;99965.97;5287047;28;20115;-72
2022/04/08 07:34:43;;;;;;;14.25;3.92;;;;;;;5.83;100.00;99964.03;5267935;28;20499;-72
2022/04/08 07:37:13;;;;;;;9.85;3.70;;;;;;;5.77;100.00;99944.19;5275215;28;20058;-72
2022/04/08 07:39:44;;;;;;;10.88;3.28;;;;;;;5.89;100.00;99945.59;5286018;28;20047;-72
2022/04/08 07:42:14;;;;;;;10.55;3.97;;;;;;;6.05;100.00;99944.03;5276613;28;20016;-72
2022/04/08 07:44:49;;;;;;;10.13;3.28;;;;;;;6.13;100.00;99949.41;5287290;28;20358;-72
2022/04/08 07:47:23;;;;;;;10.73;3.38;;;;;;;6.04;100.00;99937.88;5253690;28;20020;-72
2022/04/08 07:50:13;;;;;;;9.13;3.38;;;;;;;6.22;100.00;99943.97;5285898;28;20080;-72
2022/04/08 07:52:43;;;;;;;9.85;3.00;;;;;;;6.32;100.00;99929.66;5286997;28;20531;-72
2022/04/08 07:55:14;;;;;;;7.40;3.42;;;;;;;6.39;100.00;99934.19;5286577;28;20027;-72
2022/04/08 07:57:46;;;;;;;10.40;3.83;;;;;;;6.45;100.00;99933.53;5280479;28;20016;-72
2022/04/08 08:00:20;;;;;;;16.60;3.92;;;;;;;6.43;100.00;99924.06;5277873;28;20055;-72
2022/04/08 08:02:51;;;;;;;13.65;4.50;;;;;;;6.45;100.00;99925.56;5272842;28;20249;-71
2022/04/08 08:05:22;;;;;;;13.00;2.67;;;;;;;6.48;100.00;99921.75;5285609;28;20087;-72
2022/04/08 08:07:55;;;;;;;9.68;4.18;;;;;;;6.55;100.00;99919.25;5279767;28;20107;-73
2022/04/08 08:10:30;;;;;;;11.75;3.15;;;;;;;6.60;100.00;99917.75;5265210;28;20035;-72
2022/04/08 08:13:00;;;;;;;8.30;2.70;;;;;;;6.49;100.00;99910.91;5265591;28;20032;-72
2022/04/08 08:15:32;;;;;;;12.02;3.00;;;;;;;6.62;100.00;99904.25;5269676;28;20031;-72
2022/04/08 08:18:05;;;;;;;8.20;2.90;;;;;;;6.67;100.00;99904.59;5275392;28;20108;-72
2022/04/08 08:20:37;;;;;;;8.70;2.65;;;;;;;6.71;100.00;99897.97;5264458;28;20103;-72
2022/04/08 08:23:07;;;;;;;11.18;4.25;;;;;;;6.75;100.00;99899.31;5257416;28;20028;-72
2022/04/08 08:25:38;;;;;;;13.60;4.20;;;;;;;6.77;100.00;99896.47;5276568;28;20044;-72
2022/04/08 08:28:08;;;;;;;13.15;4.25;;;;;;;6.99;100.00;99893.16;5274293;28;20103;-72
2022/04/08 08:30:39;;;;;;;12.13;4.03;;;;;;;7.09;100.00;99880.50;5277509;28;20081;-72
2022/04/08 08:33:10;;;;;;;10.98;2.88;;;;;;;7.15;100.00;99885.16;5262227;28;20541;-73
2022/04/08 08:35:41;;;;;;;11.00;3.40;;;;;;;7.31;100.00;99876.28;5263844;28;20111;-72
2022/04/08 08:38:11;;;;;;;5.45;2.28;;;;;;;7.25;100.00;99866.31;5265014;28;20530;-72
2022/04/08 08:40:44;;;;;;;6.18;2.10;;;;;;;7.20;100.00;99863.31;5266948;28;20016;-72
2022/04/08 08:46:07;;;;;;;12.50;2.60;;;;;;;7.44;100.00;99854.44;5271165;28;20023;-72
2022/04/08 08:48:38;;;;;;;8.73;2.30;;;;;;;7.50;100.00;99848.41;5265898;28;20113;-72
2022/04/08 08:51:12;;;;;;;9.52;2.38;;;;;;;7.37;100.00;99838.25;5265143;28;20177;-72
2022/04/08 08:53:43;;;;;;;7.88;2.35;;;;;;;7.38;100.00;99847.94;5265206;28;20437;-72
2022/04/08 08:56:15;;;;;;;6.82;2.00;;;;;;;7.57;100.00;99841.38;5264580;28;20024;-73
2022/04/08 08:58:47;;;;;;;8.88;2.20;;;;;;;7.43;100.00;99845.59;5278225;28;20069;-72
2022/04/08 09:01:18;;;;;;;9.02;2.55;;;;;;;7.21;100.00;99840.97;5265290;28;20038;-72
2022/04/08 09:03:49;;;;;;;16.27;2.50;;;;;;;6.90;100.00;99851.50;5265244;28;20016;-73
2022/04/08 09:06:21;;;;;;;6.68;1.98;;;;;;;7.01;100.00;99857.31;5273694;28;20084;-72
2022/04/08 09:09:07;;;;;;;5.13;1.80;;;;;;;6.99;100.00;99863.81;5269489;28;20024;-72
2022/04/08 09:11:37;;;;;;;5.80;1.70;;;;;;;7.02;100.00;99866.16;5264302;28;20028;-72
2022/04/08 09:14:09;;;;;;;9.23;2.13;;;;;;;7.19;100.00;99869.66;5278123;28;20552;-73
2022/04/08 09:16:39;;;;;;;13.60;2.22;;;;;;;7.13;100.00;99867.63;5277826;28;20529;-73
2022/04/08 09:19:11;;;;;;;15.43;2.22;;;;;;;7.23;100.00;99860.31;5264262;28;20038;-72
2022/04/08 09:21:52;;;;;;;10.32;2.75;;;;;;;7.19;100.00;99873.16;5279379;28;20019;-72
2022/04/08 09:24:24;;;;;;;6.22;2.25;;;;;;;7.20;100.00;99873.97;5285233;28;20480;-73
2022/04/08 09:26:56;;;;;;;7.88;2.30;;;;;;;7.13;100.00;99872.97;5267553;28;20024;-72
2022/04/08 09:29:27;;;;;;;7.57;2.13;;;;;;;7.31;100.00;99873.63;5276111;28;20023;-72
2022/04/08 09:31:58;;;;;;;6.25;2.03;;;;;;;7.38;100.00;99881.78;5285585;28;20110;-72
2022/04/08 09:34:29;;;;;;;11.82;2.25;;;;;;;7.48;100.00;99887.78;5268094;28;20255;-72
2022/04/08 09:37:06;;;;;;;6.65;2.15;;;;;;;7.47;100.00;99886.94;5271970;28;20476;-73
2022/04/08 09:39:55;;;;;;;7.35;2.42;;;;;;;7.37;100.00;99890.78;5271821;28;20020;-73
2022/04/08 09:42:45;;;;;;;10.68;2.00;;;;;;;7.48;100.00;99891.28;5264245;28;20028;-73
2022/04/08 09:45:29;;;;;;;9.73;2.60;;;;;;;7.40;100.00;99888.63;5260366;28;20028;-73
2022/04/08 09:48:02;;;;;;;8.20;2.53;;;;;;;7.41;100.00;99882.28;5277605;28;20024;-72
2022/04/08 09:50:35;;;;;;;7.53;2.58;;;;;;;7.47;100.00;99883.44;5272831;28;20032;-72
2022/04/08 09:53:06;;;;;;;10.75;2.55;;;;;;;7.48;100.00;99882.44;5277456;28;20016;-73
2022/04/08 09:55:37;;;;;;;7.28;2.47;;;;;;;7.42;100.00;99878.59;5277757;28;20024;-72
2022/04/08 09:58:10;;;;;;;15.38;2.45;;;;;;;7.59;100.00;99858.06;5279106;28;20042;-71
2022/04/08 10:00:43;;;;;;;9.35;2.30;;;;;;;7.48;100.00;99856.59;5277537;28;20026;-70
2022/04/08 10:03:14;;;;;;;5.68;2.47;;;;;;;7.31;100.00;99854.94;5273420;28;20361;-71
2022/04/08 10:05:45;;;;;;;8.98;2.15;;;;;;;7.39;100.00;99851.44;5270553;28;20024;-70
2022/04/08 10:08:15;;;;;;;8.63;3.17;;;;;;;7.37;100.00;99850.78;5285226;28;20019;-70
2022/04/08 10:10:52;;;;;;;9.35;2.47;;;;;;;7.45;100.00;99850.75;5271127;28;20020;-71
2022/04/08 10:13:54;;;;;;;3.47;1.88;;;;;;;7.60;100.00;99849.06;5272374;28;20032;-71
2022/04/08 10:16:26;;;;;;;14.25;2.50;;;;;;;7.57;100.00;99844.03;5264687;28;20023;-71
2022/04/08 10:18:58;;;;;;;7.57;2.03;;;;;;;7.48;100.00;99840.59;5271513;28;20076;-71
2022/04/08 10:21:36;;;;;;;8.45;2.55;;;;;;;7.51;100.00;99832.22;5271677;28;20098;-71
2022/04/08 10:24:10;;;;;;;11.07;1.98;;;;;;;7.51;100.00;99839.41;5263994;28;20706;-71
2022/04/08 10:27:04;;;;;;;4.65;1.77;;;;;;;7.52;100.00;99828.53;5263886;28;20481;-71
2022/04/08 10:29:36;;;;;;;10.38;2.35;;;;;;;7.39;100.00;99833.59;5265744;28;20020;-71
2022/04/08 10:32:24;;;;;;;8.93;2.03;;;;;;;7.43;100.00;99826.94;5264184;28;20031;-71
2022/04/08 10:34:54;;;;;;;8.63;2.38;;;;;;;7.67;100.00;99820.66;5259013;28;20047;-71
2022/04/08 10:37:25;;;;;;;9.43;2.42;;;;;;;7.81;100.00;99824.44;5264084;28;20380;-71
2022/04/08 10:39:56;;;;;;;10.80;2.20;;;;;;;7.79;100.00;99813.13;5265585;28;20329;-71
2022/04/08 10:42:28;;;;;;;7.90;2.47;;;;;;;7.88;100.00;99812.09;5276098;28;20020;-71
2022/04/08 10:45:10;;;;;;;6.70;2.15;;;;;;;7.79;100.00;99810.47;5271236;28;20532;-71
2022/04/08 10:48:01;;;;;;;8.23;2.60;;;;;;;7.79;100.00;99808.63;5267176;28;20468;-71
2022/04/08 10:50:34;;;;;;;6.53;2.47;;;;;;;7.67;100.00;99796.63;5263102;28;20056;-71
2022/04/08 10:53:08;;;;;;;7.07;2.00;;;;;;;7.72;100.00;99796.94;5277276;28;20024;-71
2022/04/08 10:56:10;;;;;;;6.18;2.05;;;;;;;7.86;100.00;99798.06;5263750;28;20074;-71
2022/04/08 10:58:44;;;;;;;8.15;3.35;;;;;;;8.07;100.00;99796.63;5272056;28;20545;-71
2022/04/08 11:01:18;;;;;;;9.77;1.58;;;;;;;8.11;100.00;99789.91;5263289;28;20374;-71
2022/04/08 11:04:07;;;;;;;14.37;2.13;;;;;;;8.04;100.00;99793.31;5276810;28;20020;-71
2022/04/08 11:06:38;;;;;;;14.35;1.67;;;;;;;7.91;100.00;99784.19;5274818;28;20105;-71
2022/04/08 11:09:11;;;;;;;6.43;1.38;;;;;;;8.03;100.00;99782.78;5264279;28;20530;-71
2022/04/08 11:11:44;;;;;;;9.23;1.70;;;;;;;8.13;100.00;99772.69;5263896;28;20358;-72
2022/04/08 11:14:15;;;;;;;13.75;1.75;;;;;;;8.24;100.00;99777.66;5283757;28;20059;-71
2022/04/08 11:16:47;;;;;;;5.05;1.50;;;;;;;8.34;100.00;99757.88;5272482;28;20043;-72
2022/04/08 11:19:21;;;;;;;8.18;2.03;;;;;;;8.43;100.00;99754.97;5271962;28;20519;-71
2022/04/08 11:21:51;;;;;;;11.05;2.28;;;;;;;8.44;100.00;99748.66;5285033;28;20403;-71
2022/04/08 11:24:22;;;;;;;11.32;1.70;;;;;;;8.42;100.00;99747.97;5279654;28;20028;-71
2022/04/08 11:26:53;;;;;;;14.93;3.53;;;;;;;8.49;100.00;99754.28;5277077;28;20520;-72
2022/04/08 11:29:27;;;;;;;6.97;1.55;;;;;;;8.73;100.00;99744.38;5263745;28;20393;-72
2022/04/08 11:32:11;;;;;;;11.13;1.70;;;;;;;8.96;100.00;99742.50;5267723;28;20068;-71
2022/04/08 11:34:42;;;;;;;8.18;2.05;;;;;;;8.79;100.00;99741.00;5270087;28;20075;-71
2022/04/08 11:37:12;;;;;;;5.80;1.60;;;;;;;8.77;100.00;99737.66;5275388;28;20070;-72
2022/04/08 11:39:43;;;;;;;3.35;1.30;;;;;;;8.86;100.00;99739.25;5266619;28;20119;-71
2022/04/08 11:42:20;;;;;;;6.13;1.40;;;;;;;8.94;100.00;99735.69;5280972;28;20020;-71
2022/04/08 11:44:51;;;;;;;6.60;1.50;;;;;;;8.97;100.00;99727.28;5266846;28;20027;-71
2022/04/08 11:47:30;;;;;;;9.32;1.40;;;;;;;8.98;100.00;99729.75;5272204;28;20020;-71
2022/04/08 11:50:06;;;;;;;9.75;1.98;;;;;;;8.97;100.00;99725.41;5265894;28;20020;-71